sensor_id;sensor_type;location;lat;lon;timestamp;pressure;altitude;pressure_sealevel;temperature;humidity
78094;BME280;67327;37.152;-76.406;2023-03-01T00:02:24;101280.31;;;43.03;9.02
78094;BME280;67327;37.152;-76.406;2023-03-01T00:04:49;101284.20;;;43.00;8.99
78094;BME280;67327;37.152;-76.406;2023-03-01T00:07:14;101285.69;;;42.95;9.04
78094;BME280;67327;37.152;-76.406;2023-03-01T00:09:40;101289.10;;;42.67;9.03
78094;BME280;67327;37.152;-76.406;2023-03-01T00:12:06;101292.47;;;43.07;9.07
78094;BME280;67327;37.152;-76.406;2023-03-01T00:14:30;101295.41;;;42.54;9.07
78094;BME280;67327;37.152;-76.406;2023-03-01T00:16:55;101288.09;;;42.97;9.09
78094;BME280;67327;37.152;-76.406;2023-03-01T00:19:20;101293.07;;;42.90;9.12
78094;BME280;67327;37.152;-76.406;2023-03-01T00:21:46;101290.17;;;42.87;9.14
78094;BME280;67327;37.152;-76.406;2023-03-01T00:24:11;101294.06;;;42.82;9.15
78094;BME280;67327;37.152;-76.406;2023-03-01T00:26:36;101298.67;;;42.79;9.16
78094;BME280;67327;37.152;-76.406;2023-03-01T00:29:01;101301.46;;;42.76;9.17
78094;BME280;67327;37.152;-76.406;2023-03-01T00:31:28;101301.36;;;42.70;9.18
78094;BME280;67327;37.152;-76.406;2023-03-01T00:33:54;101304.51;;;42.63;9.20
78094;BME280;67327;37.152;-76.406;2023-03-01T00:36:16;101306.80;;;42.61;9.23
78094;BME280;67327;37.152;-76.406;2023-03-01T00:38:43;101311.83;;;42.33;9.23
78094;BME280;67327;37.152;-76.406;2023-03-01T00:41:07;101322.28;;;42.29;9.24
78094;BME280;67327;37.152;-76.406;2023-03-01T00:43:32;101327.51;;;42.50;9.26
78094;BME280;67327;37.152;-76.406;2023-03-01T00:46:01;101324.96;;;42.45;9.28
78094;BME280;67327;37.152;-76.406;2023-03-01T00:48:22;101332.36;;;42.65;9.31
78094;BME280;67327;37.152;-76.406;2023-03-01T00:50:47;101337.95;;;42.40;9.31
78094;BME280;67327;37.152;-76.406;2023-03-01T00:53:12;101336.08;;;42.41;9.32
78094;BME280;67327;37.152;-76.406;2023-03-01T00:55:37;101344.19;;;42.40;9.31
78094;BME280;67327;37.152;-76.406;2023-03-01T00:58:02;101350.44;;;42.39;9.30
78094;BME280;67327;37.152;-76.406;2023-03-01T01:00:27;101350.04;;;42.14;9.33
78094;BME280;67327;37.152;-76.406;2023-03-01T01:02:53;101354.92;;;42.37;9.33
78094;BME280;67327;37.152;-76.406;2023-03-01T01:05:18;101370.21;;;42.11;9.34
78094;BME280;67327;37.152;-76.406;2023-03-01T01:07:45;101375.92;;;42.34;9.35
78094;BME280;67327;37.152;-76.406;2023-03-01T01:10:10;101382.92;;;42.34;9.36
78094;BME280;67327;37.152;-76.406;2023-03-01T01:12:34;101378.88;;;42.31;9.35
78094;BME280;67327;37.152;-76.406;2023-03-01T01:14:59;101381.59;;;42.30;9.37
78094;BME280;67327;37.152;-76.406;2023-03-01T01:17:24;101385.28;;;42.28;9.37
78094;BME280;67327;37.152;-76.406;2023-03-01T01:19:49;101388.73;;;42.25;9.38
78094;BME280;67327;37.152;-76.406;2023-03-01T01:22:14;101396.06;;;42.24;9.39
78094;BME280;67327;37.152;-76.406;2023-03-01T01:24:40;101397.05;;;42.23;9.40
78094;BME280;67327;37.152;-76.406;2023-03-01T01:27:05;101406.75;;;42.22;9.40
78094;BME280;67327;37.152;-76.406;2023-03-01T01:29:30;101404.70;;;42.22;9.40
78094;BME280;67327;37.152;-76.406;2023-03-01T01:31:55;101413.64;;;42.22;9.40
78094;BME280;67327;37.152;-76.406;2023-03-01T01:34:21;101416.89;;;42.21;9.43
78094;BME280;67327;37.152;-76.406;2023-03-01T01:36:49;101421.55;;;42.21;9.43
78094;BME280;67327;37.152;-76.406;2023-03-01T01:39:10;101420.76;;;42.21;9.43
78094;BME280;67327;37.152;-76.406;2023-03-01T01:41:35;101421.93;;;42.20;9.43
78094;BME280;67327;37.152;-76.406;2023-03-01T01:44:11;101423.68;;;42.18;9.43
78094;BME280;67327;37.152;-76.406;2023-03-01T01:46:30;101428.25;;;42.16;9.47
78094;BME280;67327;37.152;-76.406;2023-03-01T01:48:57;101427.52;;;42.14;9.46
78094;BME280;67327;37.152;-76.406;2023-03-01T01:51:19;101438.32;;;42.11;9.48
78094;BME280;67327;37.152;-76.406;2023-03-01T01:53:42;101443.88;;;42.34;9.48
78094;BME280;67327;37.152;-76.406;2023-03-01T01:56:08;101455.08;;;42.29;9.51
78094;BME280;67327;37.152;-76.406;2023-03-01T01:58:31;101462.47;;;42.04;9.52
78094;BME280;67327;37.152;-76.406;2023-03-01T02:00:56;101470.82;;;42.26;9.54
78094;BME280;67327;37.152;-76.406;2023-03-01T02:03:26;101475.19;;;42.47;9.55
78094;BME280;67327;37.152;-76.406;2023-03-01T02:05:51;101476.26;;;42.19;9.58
78094;BME280;67327;37.152;-76.406;2023-03-01T02:08:13;101477.76;;;41.91;9.58
78094;BME280;67327;37.152;-76.406;2023-03-01T02:10:38;101479.33;;;42.33;9.60
78094;BME280;67327;37.152;-76.406;2023-03-01T02:13:03;101483.10;;;42.29;9.62
78094;BME280;67327;37.152;-76.406;2023-03-01T02:15:27;101485.46;;;42.00;9.62
78094;BME280;67327;37.152;-76.406;2023-03-01T02:17:52;101486.33;;;42.21;9.64
78094;BME280;67327;37.152;-76.406;2023-03-01T02:20:23;101488.55;;;41.96;9.65
78094;BME280;67327;37.152;-76.406;2023-03-01T02:22:44;101495.37;;;41.96;9.65
78094;BME280;67327;37.152;-76.406;2023-03-01T02:27:38;101514.09;;;41.72;9.67
78094;BME280;67327;37.152;-76.406;2023-03-01T02:29:58;101517.21;;;42.19;9.66
78094;BME280;67327;37.152;-76.406;2023-03-01T02:32:23;101513.82;;;41.70;9.64
78094;BME280;67327;37.152;-76.406;2023-03-01T02:34:49;101506.27;;;41.92;9.68
78094;BME280;67327;37.152;-76.406;2023-03-01T02:37:14;101512.45;;;41.65;9.68
78094;BME280;67327;37.152;-76.406;2023-03-01T02:39:41;101524.35;;;42.11;9.70
78094;BME280;67327;37.152;-76.406;2023-03-01T02:42:04;101532.04;;;42.08;9.68
78094;BME280;67327;37.152;-76.406;2023-03-01T02:44:28;101531.07;;;41.80;9.71
78094;BME280;67327;37.152;-76.406;2023-03-01T02:46:56;101532.18;;;42.00;9.74
78094;BME280;67327;37.152;-76.406;2023-03-01T02:49:22;101535.14;;;41.74;9.75
78094;BME280;67327;37.152;-76.406;2023-03-01T02:51:54;101538.70;;;41.70;9.76
78094;BME280;67327;37.152;-76.406;2023-03-01T02:54:17;101544.15;;;41.70;9.77
78094;BME280;67327;37.152;-76.406;2023-03-01T02:56:34;101544.50;;;41.72;9.76
78094;BME280;67327;37.152;-76.406;2023-03-01T02:59:00;101554.96;;;41.96;9.77
78094;BME280;67327;37.152;-76.406;2023-03-01T03:01:24;101563.18;;;41.96;9.76
78094;BME280;67327;37.152;-76.406;2023-03-01T03:03:49;101564.20;;;41.72;9.75
78094;BME280;67327;37.152;-76.406;2023-03-01T03:06:14;101551.80;;;41.72;9.76
78094;BME280;67327;37.152;-76.406;2023-03-01T03:08:40;101547.30;;;41.97;9.75
78094;BME280;67327;37.152;-76.406;2023-03-01T03:11:05;101548.91;;;41.72;9.75
78094;BME280;67327;37.152;-76.406;2023-03-01T03:13:30;101548.15;;;41.47;9.76
78094;BME280;67327;37.152;-76.406;2023-03-01T03:15:56;101555.99;;;41.71;9.76
78094;BME280;67327;37.152;-76.406;2023-03-01T03:18:20;101567.42;;;41.73;9.74
78094;BME280;67327;37.152;-76.406;2023-03-01T03:20:46;101573.09;;;41.73;9.75
78094;BME280;67327;37.152;-76.406;2023-03-01T03:23:11;101577.88;;;41.73;9.75
78094;BME280;67327;37.152;-76.406;2023-03-01T03:25:36;101578.28;;;41.73;9.74
78094;BME280;67327;37.152;-76.406;2023-03-01T03:28:01;101577.86;;;41.48;9.74
78094;BME280;67327;37.152;-76.406;2023-03-01T03:30:28;101580.02;;;41.71;9.74
78094;BME280;67327;37.152;-76.406;2023-03-01T03:32:51;101592.03;;;41.95;9.74
78094;BME280;67327;37.152;-76.406;2023-03-01T03:35:16;101595.76;;;41.68;9.74
78094;BME280;67327;37.152;-76.406;2023-03-01T03:37:42;101599.70;;;41.42;9.75
78094;BME280;67327;37.152;-76.406;2023-03-01T03:40:08;101594.69;;;41.42;9.75
78094;BME280;67327;37.152;-76.406;2023-03-01T03:42:32;101596.02;;;41.64;9.75
78094;BME280;67327;37.152;-76.406;2023-03-01T03:44:57;101603.35;;;41.61;9.76
78094;BME280;67327;37.152;-76.406;2023-03-01T03:47:22;101611.17;;;41.80;9.77
78094;BME280;67327;37.152;-76.406;2023-03-01T03:49:48;101620.99;;;41.24;9.79
78094;BME280;67327;37.152;-76.406;2023-03-01T03:52:13;101631.04;;;41.65;9.81
78094;BME280;67327;37.152;-76.406;2023-03-01T03:54:38;101640.48;;;41.38;9.81
78094;BME280;67327;37.152;-76.406;2023-03-01T03:57:03;101638.66;;;41.62;9.81
78094;BME280;67327;37.152;-76.406;2023-03-01T03:59:28;101643.17;;;41.62;9.80
78094;BME280;67327;37.152;-76.406;2023-03-01T04:01:53;101649.87;;;41.58;9.81
78094;BME280;67327;37.152;-76.406;2023-03-01T04:04:18;101658.88;;;41.31;9.81
78094;BME280;67327;37.152;-76.406;2023-03-01T04:06:43;101662.33;;;41.29;9.82
78094;BME280;67327;37.152;-76.406;2023-03-01T04:09:08;101666.22;;;41.50;9.84
78094;BME280;67327;37.152;-76.406;2023-03-01T04:11:34;101672.96;;;41.48;9.84
78094;BME280;67327;37.152;-76.406;2023-03-01T04:13:59;101676.10;;;41.23;9.82
78094;BME280;67327;37.152;-76.406;2023-03-01T04:16:24;101682.05;;;41.25;9.81
78094;BME280;67327;37.152;-76.406;2023-03-01T04:18:49;101685.63;;;41.50;9.80
78094;BME280;67327;37.152;-76.406;2023-03-01T04:21:14;101685.40;;;41.28;9.78
78094;BME280;67327;37.152;-76.406;2023-03-01T04:23:40;101688.99;;;41.52;9.78
78094;BME280;67327;37.152;-76.406;2023-03-01T04:26:04;101691.06;;;41.51;9.78
78094;BME280;67327;37.152;-76.406;2023-03-01T04:28:35;101690.10;;;41.49;9.77
78094;BME280;67327;37.152;-76.406;2023-03-01T04:30:56;101689.70;;;41.48;9.78
78094;BME280;67327;37.152;-76.406;2023-03-01T04:33:20;101686.43;;;41.45;9.78
78094;BME280;67327;37.152;-76.406;2023-03-01T04:35:45;101683.56;;;40.94;9.79
78094;BME280;67327;37.152;-76.406;2023-03-01T04:38:10;101679.29;;;41.41;9.79
78094;BME280;67327;37.152;-76.406;2023-03-01T04:40:35;101680.30;;;41.19;9.78
78094;BME280;67327;37.152;-76.406;2023-03-01T04:43:00;101687.12;;;41.39;9.78
78094;BME280;67327;37.152;-76.406;2023-03-01T04:45:25;101691.72;;;41.33;9.79
78094;BME280;67327;37.152;-76.406;2023-03-01T04:47:50;101688.80;;;41.50;9.82
78094;BME280;67327;37.152;-76.406;2023-03-01T04:50:17;101692.75;;;40.95;9.84
78094;BME280;67327;37.152;-76.406;2023-03-01T04:52:40;101693.79;;;41.16;9.83
78094;BME280;67327;37.152;-76.406;2023-03-01T04:55:06;101690.29;;;41.36;9.85
78094;BME280;67327;37.152;-76.406;2023-03-01T04:57:31;101696.07;;;41.32;9.86
78094;BME280;67327;37.152;-76.406;2023-03-01T04:59:56;101698.98;;;41.06;9.86
78094;BME280;67327;37.152;-76.406;2023-03-01T05:02:21;101695.18;;;41.06;9.83
78094;BME280;67327;37.152;-76.406;2023-03-01T05:04:46;101697.80;;;41.29;9.85
78094;BME280;67327;37.152;-76.406;2023-03-01T05:07:16;101701.48;;;41.02;9.85
78094;BME280;67327;37.152;-76.406;2023-03-01T05:09:36;101708.80;;;41.01;9.85
78094;BME280;67327;37.152;-76.406;2023-03-01T05:12:02;101713.95;;;40.76;9.84
78094;BME280;67327;37.152;-76.406;2023-03-01T05:14:27;101721.82;;;41.22;9.85
78094;BME280;67327;37.152;-76.406;2023-03-01T05:16:52;101731.59;;;40.74;9.84
78094;BME280;67327;37.152;-76.406;2023-03-01T05:19:17;101735.12;;;40.97;9.84
78094;BME280;67327;37.152;-76.406;2023-03-01T05:21:42;101742.78;;;40.95;9.85
78094;BME280;67327;37.152;-76.406;2023-03-01T05:24:08;101752.31;;;40.94;9.85
78094;BME280;67327;37.152;-76.406;2023-03-01T05:26:32;101757.90;;;40.92;9.85
78094;BME280;67327;37.152;-76.406;2023-03-01T05:28:57;101759.32;;;40.87;9.87
78094;BME280;67327;37.152;-76.406;2023-03-01T05:31:22;101758.31;;;40.85;9.86
78094;BME280;67327;37.152;-76.406;2023-03-01T05:33:48;101758.35;;;40.82;9.88
78094;BME280;67327;37.152;-76.406;2023-03-01T05:36:13;101757.57;;;40.81;9.87
78094;BME280;67327;37.152;-76.406;2023-03-01T05:38:38;101761.61;;;41.05;9.90
78094;BME280;67327;37.152;-76.406;2023-03-01T05:41:03;101762.80;;;40.80;9.89
78094;BME280;67327;37.152;-76.406;2023-03-01T05:43:31;101759.01;;;40.81;9.88
78094;BME280;67327;37.152;-76.406;2023-03-01T05:45:53;101761.73;;;41.05;9.88
78094;BME280;67327;37.152;-76.406;2023-03-01T05:48:19;101764.48;;;40.78;9.89
78094;BME280;67327;37.152;-76.406;2023-03-01T05:50:45;101762.01;;;40.76;9.89
78094;BME280;67327;37.152;-76.406;2023-03-01T05:53:11;101769.23;;;40.76;9.88
78094;BME280;67327;37.152;-76.406;2023-03-01T05:55:35;101771.73;;;40.99;9.87
78094;BME280;67327;37.152;-76.406;2023-03-01T05:57:59;101774.91;;;40.75;9.87
78094;BME280;67327;37.152;-76.406;2023-03-01T06:00:24;101777.36;;;40.75;9.86
78094;BME280;67327;37.152;-76.406;2023-03-01T06:02:49;101780.46;;;41.00;9.86
78094;BME280;67327;37.152;-76.406;2023-03-01T06:05:15;101787.99;;;40.72;9.85
78094;BME280;67327;37.152;-76.406;2023-03-01T06:07:40;101797.55;;;40.68;9.87
78094;BME280;67327;37.152;-76.406;2023-03-01T06:10:06;101794.55;;;40.91;9.87
78094;BME280;67327;37.152;-76.406;2023-03-01T06:12:31;101794.15;;;40.69;9.85
78094;BME280;67327;37.152;-76.406;2023-03-01T06:14:55;101793.40;;;40.67;9.85
78094;BME280;67327;37.152;-76.406;2023-03-01T06:17:20;101792.70;;;40.66;9.84
78094;BME280;67327;37.152;-76.406;2023-03-01T06:19:46;101792.86;;;40.90;9.82
78094;BME280;67327;37.152;-76.406;2023-03-01T06:22:10;101794.53;;;40.64;9.81
78094;BME280;67327;37.152;-76.406;2023-03-01T06:24:35;101793.33;;;40.82;9.82
78094;BME280;67327;37.152;-76.406;2023-03-01T06:27:00;101797.88;;;40.78;9.83
78094;BME280;67327;37.152;-76.406;2023-03-01T06:29:25;101798.28;;;40.75;9.83
78094;BME280;67327;37.152;-76.406;2023-03-01T06:31:50;101794.18;;;40.71;9.84
78094;BME280;67327;37.152;-76.406;2023-03-01T06:34:16;101795.61;;;40.44;9.83
78094;BME280;67327;37.152;-76.406;2023-03-01T06:36:41;101799.51;;;40.62;9.84
78094;BME280;67327;37.152;-76.406;2023-03-01T06:39:06;101800.91;;;40.82;9.85
78094;BME280;67327;37.152;-76.406;2023-03-01T06:41:31;101802.78;;;40.56;9.84
78094;BME280;67327;37.152;-76.406;2023-03-01T06:43:56;101805.69;;;40.52;9.84
78094;BME280;67327;37.152;-76.406;2023-03-01T06:46:21;101807.31;;;40.72;9.86
78094;BME280;67327;37.152;-76.406;2023-03-01T06:48:47;101808.39;;;40.65;9.87
78094;BME280;67327;37.152;-76.406;2023-03-01T06:51:11;101801.51;;;40.37;9.89
78094;BME280;67327;37.152;-76.406;2023-03-01T06:53:36;101801.69;;;40.33;9.89
78094;BME280;67327;37.152;-76.406;2023-03-01T06:56:02;101805.42;;;40.51;9.90
78094;BME280;67327;37.152;-76.406;2023-03-01T06:58:27;101803.78;;;40.49;9.91
78094;BME280;67327;37.152;-76.406;2023-03-01T07:00:52;101799.33;;;40.44;9.92
78094;BME280;67327;37.152;-76.406;2023-03-01T07:03:17;101793.48;;;40.35;9.95
78094;BME280;67327;37.152;-76.406;2023-03-01T07:05:42;101794.22;;;40.32;9.95
78094;BME280;67327;37.152;-76.406;2023-03-01T07:08:07;101789.40;;;40.30;9.97
78094;BME280;67327;37.152;-76.406;2023-03-01T07:10:33;101784.77;;;40.27;9.95
78094;BME280;67327;37.152;-76.406;2023-03-01T07:12:59;101787.41;;;40.24;9.98
78094;BME280;67327;37.152;-76.406;2023-03-01T07:15:23;101789.39;;;40.03;9.98
78094;BME280;67327;37.152;-76.406;2023-03-01T07:17:53;101795.26;;;40.00;9.96
78094;BME280;67327;37.152;-76.406;2023-03-01T07:20:13;101797.73;;;40.22;9.98
78094;BME280;67327;37.152;-76.406;2023-03-01T07:22:40;101797.19;;;40.21;9.98
78094;BME280;67327;37.152;-76.406;2023-03-01T07:25:05;101792.35;;;40.19;9.99
78094;BME280;67327;37.152;-76.406;2023-03-01T07:27:30;101793.02;;;40.16;10.00
78094;BME280;67327;37.152;-76.406;2023-03-01T07:29:53;101791.98;;;40.14;9.99
78094;BME280;67327;37.152;-76.406;2023-03-01T07:32:19;101791.60;;;40.12;10.00
78094;BME280;67327;37.152;-76.406;2023-03-01T07:34:44;101793.24;;;40.09;9.99
78094;BME280;67327;37.152;-76.406;2023-03-01T07:37:09;101793.60;;;40.24;10.02
78094;BME280;67327;37.152;-76.406;2023-03-01T07:39:34;101788.48;;;39.92;10.06
78094;BME280;67327;37.152;-76.406;2023-03-01T07:41:59;101785.76;;;39.89;10.06
78094;BME280;67327;37.152;-76.406;2023-03-01T07:44:24;101787.46;;;39.87;10.08
78094;BME280;67327;37.152;-76.406;2023-03-01T07:46:50;101782.46;;;39.83;10.08
78094;BME280;67327;37.152;-76.406;2023-03-01T07:49:15;101782.80;;;40.08;10.07
78094;BME280;67327;37.152;-76.406;2023-03-01T07:51:39;101780.09;;;39.81;10.09
78094;BME280;67327;37.152;-76.406;2023-03-01T07:54:05;101780.75;;;39.76;10.08
78094;BME280;67327;37.152;-76.406;2023-03-01T07:56:30;101777.76;;;39.71;10.10
78094;BME280;67327;37.152;-76.406;2023-03-01T07:58:55;101779.80;;;39.68;10.12
78094;BME280;67327;37.152;-76.406;2023-03-01T08:01:21;101777.19;;;39.66;10.11
78094;BME280;67327;37.152;-76.406;2023-03-01T08:03:45;101776.51;;;39.88;10.12
78094;BME280;67327;37.152;-76.406;2023-03-01T08:06:12;101776.56;;;39.88;10.12
78094;BME280;67327;37.152;-76.406;2023-03-01T08:08:35;101778.44;;;39.87;10.11
78094;BME280;67327;37.152;-76.406;2023-03-01T08:11:02;101781.83;;;39.62;10.11
78094;BME280;67327;37.152;-76.406;2023-03-01T08:13:26;101782.02;;;39.87;10.11
78094;BME280;67327;37.152;-76.406;2023-03-01T08:15:51;101788.09;;;39.64;10.09
78094;BME280;67327;37.152;-76.406;2023-03-01T08:18:26;101794.46;;;39.63;10.10
78094;BME280;67327;37.152;-76.406;2023-03-01T08:20:41;101799.25;;;39.86;10.11
78094;BME280;67327;37.152;-76.406;2023-03-01T08:23:06;101804.99;;;40.07;10.11
78094;BME280;67327;37.152;-76.406;2023-03-01T08:25:31;101808.16;;;39.82;10.10
78094;BME280;67327;37.152;-76.406;2023-03-01T08:27:56;101811.29;;;39.57;10.11
78094;BME280;67327;37.152;-76.406;2023-03-01T08:30:21;101808.44;;;39.82;10.09
78094;BME280;67327;37.152;-76.406;2023-03-01T08:32:46;101807.74;;;39.58;10.10
78094;BME280;67327;37.152;-76.406;2023-03-01T08:35:12;101810.29;;;39.81;10.10
78094;BME280;67327;37.152;-76.406;2023-03-01T08:37:37;101820.49;;;39.54;10.10
78094;BME280;67327;37.152;-76.406;2023-03-01T08:40:02;101824.02;;;39.51;10.11
78094;BME280;67327;37.152;-76.406;2023-03-01T08:42:27;101823.67;;;39.97;10.12
78094;BME280;67327;37.152;-76.406;2023-03-01T08:44:52;101821.83;;;39.69;10.12
78094;BME280;67327;37.152;-76.406;2023-03-01T08:47:18;101828.88;;;39.41;10.14
78094;BME280;67327;37.152;-76.406;2023-03-01T08:49:42;101831.87;;;39.85;10.14
78094;BME280;67327;37.152;-76.406;2023-03-01T08:52:12;101833.73;;;39.57;10.16
78094;BME280;67327;37.152;-76.406;2023-03-01T08:54:33;101831.99;;;39.52;10.16
78094;BME280;67327;37.152;-76.406;2023-03-01T08:56:58;101827.68;;;39.50;10.16
78094;BME280;67327;37.152;-76.406;2023-03-01T08:59:24;101830.63;;;39.71;10.17
78094;BME280;67327;37.152;-76.406;2023-03-01T09:01:48;101831.30;;;39.70;10.17
78094;BME280;67327;37.152;-76.406;2023-03-01T09:04:14;101829.76;;;39.44;10.17
78094;BME280;67327;37.152;-76.406;2023-03-01T09:06:39;101829.94;;;39.44;10.17
78094;BME280;67327;37.152;-76.406;2023-03-01T09:09:06;101828.94;;;39.67;10.16
78094;BME280;67327;37.152;-76.406;2023-03-01T09:11:29;101830.84;;;39.66;10.15
78094;BME280;67327;37.152;-76.406;2023-03-01T09:13:54;101829.82;;;39.64;10.16
78094;BME280;67327;37.152;-76.406;2023-03-01T09:16:21;101829.23;;;39.37;10.17
78094;BME280;67327;37.152;-76.406;2023-03-01T09:18:48;101826.07;;;39.33;10.19
78094;BME280;67327;37.152;-76.406;2023-03-01T09:21:13;101830.68;;;39.07;10.20
78094;BME280;67327;37.152;-76.406;2023-03-01T09:23:34;101831.06;;;39.28;10.19
78094;BME280;67327;37.152;-76.406;2023-03-01T09:25:59;101831.64;;;39.47;10.22
78094;BME280;67327;37.152;-76.406;2023-03-01T09:28:24;101833.16;;;39.22;10.22
78094;BME280;67327;37.152;-76.406;2023-03-01T09:30:49;101831.15;;;39.43;10.25
78094;BME280;67327;37.152;-76.406;2023-03-01T09:33:14;101827.26;;;39.22;10.23
78094;BME280;67327;37.152;-76.406;2023-03-01T09:35:40;101824.71;;;39.23;10.23
78094;BME280;67327;37.152;-76.406;2023-03-01T09:38:04;101831.40;;;39.48;10.22
78094;BME280;67327;37.152;-76.406;2023-03-01T09:40:30;101835.43;;;39.49;10.21
78094;BME280;67327;37.152;-76.406;2023-03-01T09:43:02;101836.50;;;39.49;10.20
78094;BME280;67327;37.152;-76.406;2023-03-01T09:45:27;101841.99;;;39.29;10.19
78094;BME280;67327;37.152;-76.406;2023-03-01T09:47:46;101848.18;;;39.30;10.18
78094;BME280;67327;37.152;-76.406;2023-03-01T09:50:13;101854.60;;;39.31;10.16
78094;BME280;67327;37.152;-76.406;2023-03-01T09:52:40;101861.77;;;39.54;10.17
78094;BME280;67327;37.152;-76.406;2023-03-01T09:55:00;101864.55;;;39.29;10.18
78094;BME280;67327;37.152;-76.406;2023-03-01T09:57:32;101861.86;;;39.31;10.14
78094;BME280;67327;37.152;-76.406;2023-03-01T10:02:25;101878.59;;;39.29;10.14
78094;BME280;67327;37.152;-76.406;2023-03-01T10:04:46;101888.28;;;39.49;10.14
78094;BME280;67327;37.152;-76.406;2023-03-01T10:07:20;101896.53;;;39.24;10.14
78094;BME280;67327;37.152;-76.406;2023-03-01T10:09:34;101901.04;;;39.21;10.15
78094;BME280;67327;37.152;-76.406;2023-03-01T10:11:57;101905.46;;;39.42;10.19
78094;BME280;67327;37.152;-76.406;2023-03-01T10:14:30;101904.25;;;39.36;10.16
78094;BME280;67327;37.152;-76.406;2023-03-01T10:16:50;101914.38;;;39.07;10.18
78094;BME280;67327;37.152;-76.406;2023-03-01T10:19:16;101925.97;;;39.28;10.19
78094;BME280;67327;37.152;-76.406;2023-03-01T10:21:43;101933.29;;;39.27;10.18
78094;BME280;67327;37.152;-76.406;2023-03-01T10:24:10;101935.30;;;39.25;10.20
78094;BME280;67327;37.152;-76.406;2023-03-01T10:26:38;101941.46;;;39.24;10.19
78094;BME280;67327;37.152;-76.406;2023-03-01T10:28:59;101944.03;;;39.26;10.18
78094;BME280;67327;37.152;-76.406;2023-03-01T10:31:22;101943.09;;;39.06;10.16
78094;BME280;67327;37.152;-76.406;2023-03-01T10:33:42;101948.83;;;39.34;10.15
78094;BME280;67327;37.152;-76.406;2023-03-01T10:36:13;101951.79;;;38.88;10.13
78094;BME280;67327;37.152;-76.406;2023-03-01T10:40:59;101962.62;;;39.39;10.12
78094;BME280;67327;37.152;-76.406;2023-03-01T10:43:23;101964.54;;;39.15;10.11
78094;BME280;67327;37.152;-76.406;2023-03-01T10:45:48;101972.35;;;39.15;10.10
78094;BME280;67327;37.152;-76.406;2023-03-01T10:48:15;101978.00;;;39.39;10.10
78094;BME280;67327;37.152;-76.406;2023-03-01T10:50:38;101976.53;;;39.12;10.11
78094;BME280;67327;37.152;-76.406;2023-03-01T10:53:04;101976.88;;;39.07;10.12
78094;BME280;67327;37.152;-76.406;2023-03-01T10:55:33;101972.05;;;39.26;10.14
78094;BME280;67327;37.152;-76.406;2023-03-01T11:00:23;101984.72;;;39.21;10.14
78094;BME280;67327;37.152;-76.406;2023-03-01T11:02:45;101994.40;;;39.17;10.13
78094;BME280;67327;37.152;-76.406;2023-03-01T11:05:17;102000.24;;;39.19;10.14
78094;BME280;67327;37.152;-76.406;2023-03-01T11:09:59;102004.47;;;38.98;10.12
78094;BME280;67327;37.152;-76.406;2023-03-01T11:12:25;102010.61;;;38.96;10.11
78094;BME280;67327;37.152;-76.406;2023-03-01T11:14:55;102013.14;;;39.19;10.12
78094;BME280;67327;37.152;-76.406;2023-03-01T11:17:20;102017.53;;;38.93;10.13
78094;BME280;67327;37.152;-76.406;2023-03-01T11:19:40;102015.98;;;39.16;10.12
78094;BME280;67327;37.152;-76.406;2023-03-01T11:22:08;102016.05;;;39.14;10.13
78094;BME280;67327;37.152;-76.406;2023-03-01T11:24:36;102019.81;;;39.16;10.13
78094;BME280;67327;37.152;-76.406;2023-03-01T11:26:55;102019.48;;;38.96;10.10
78094;BME280;67327;37.152;-76.406;2023-03-01T11:29:27;102007.53;;;39.23;10.09
78094;BME280;67327;37.152;-76.406;2023-03-01T11:31:46;102000.13;;;39.26;10.08
78094;BME280;67327;37.152;-76.406;2023-03-01T11:34:13;101998.79;;;39.26;10.07
78094;BME280;67327;37.152;-76.406;2023-03-01T11:36:41;101999.13;;;39.01;10.07
78094;BME280;67327;37.152;-76.406;2023-03-01T11:39:10;102004.47;;;39.26;10.06
78094;BME280;67327;37.152;-76.406;2023-03-01T11:41:28;102001.50;;;39.25;10.06
78094;BME280;67327;37.152;-76.406;2023-03-01T11:43:54;101993.74;;;39.21;10.06
78094;BME280;67327;37.152;-76.406;2023-03-01T11:46:26;101996.61;;;39.15;10.08
78094;BME280;67327;37.152;-76.406;2023-03-01T11:48:50;101991.51;;;39.13;10.08
78094;BME280;67327;37.152;-76.406;2023-03-01T11:51:11;101986.88;;;39.12;10.08
78094;BME280;67327;37.152;-76.406;2023-03-01T11:53:50;101988.54;;;39.09;10.09
78094;BME280;67327;37.152;-76.406;2023-03-01T11:56:05;101994.59;;;39.09;10.09
78094;BME280;67327;37.152;-76.406;2023-03-01T11:58:33;102001.43;;;39.07;10.09
78094;BME280;67327;37.152;-76.406;2023-03-01T12:01:00;102001.81;;;39.07;10.13
78094;BME280;67327;37.152;-76.406;2023-03-01T12:03:25;101997.59;;;39.09;10.17
78094;BME280;67327;37.152;-76.406;2023-03-01T12:05:47;101994.82;;;38.88;10.20
78094;BME280;67327;37.152;-76.406;2023-03-01T12:08:08;101998.91;;;39.14;10.23
78094;BME280;67327;37.152;-76.406;2023-03-01T12:10:30;102000.16;;;39.16;10.26
78094;BME280;67327;37.152;-76.406;2023-03-01T12:15:39;102006.67;;;39.14;10.33
78094;BME280;67327;37.152;-76.406;2023-03-01T12:17:56;102005.81;;;39.18;10.32
78094;BME280;67327;37.152;-76.406;2023-03-01T12:20:19;102008.63;;;39.04;10.29
78094;BME280;67327;37.152;-76.406;2023-03-01T12:22:38;102017.89;;;39.30;10.29
78094;BME280;67327;37.152;-76.406;2023-03-01T12:25:15;102024.46;;;39.31;10.30
78094;BME280;67327;37.152;-76.406;2023-03-01T12:27:38;102028.03;;;39.08;10.29
78094;BME280;67327;37.152;-76.406;2023-03-01T12:29:54;102035.50;;;39.13;10.28
78094;BME280;67327;37.152;-76.406;2023-03-01T12:32:22;102036.75;;;39.14;10.28
78094;BME280;67327;37.152;-76.406;2023-03-01T12:34:48;102034.53;;;39.39;10.28
78094;BME280;67327;37.152;-76.406;2023-03-01T12:37:13;102037.79;;;39.38;10.27
78094;BME280;67327;37.152;-76.406;2023-03-01T12:39:39;102041.24;;;39.38;10.28